createdAt,value
2023-02-27T00:01:59.898Z,83.50
2023-02-27T00:04:26.408Z,83.75
2023-02-27T00:06:52.915Z,83.56
2023-02-27T00:09:19.447Z,83.49
2023-02-27T00:11:45.863Z,83.65
2023-02-27T00:14:12.316Z,83.50
2023-02-27T00:16:38.728Z,83.57
2023-02-27T00:19:05.187Z,83.70
2023-02-27T00:21:32.575Z,83.91
2023-02-27T00:23:59.139Z,83.88
2023-02-27T00:26:25.769Z,83.76
2023-02-27T00:28:52.234Z,84.06
2023-02-27T00:31:19.021Z,83.94
2023-02-27T00:33:45.542Z,83.97
2023-02-27T00:36:12.104Z,84.04
2023-02-27T00:38:38.544Z,84.05
2023-02-27T00:41:05.135Z,84.12
2023-02-27T00:43:31.655Z,84.03
2023-02-27T00:45:58.236Z,84.24
2023-02-27T00:48:24.773Z,84.14
2023-02-27T00:50:51.223Z,84.23
2023-02-27T00:53:18.113Z,84.31
2023-02-27T00:55:44.438Z,84.37
2023-02-27T00:58:10.902Z,84.26
2023-02-27T01:00:37.526Z,84.11
2023-02-27T01:03:04.202Z,84.28
2023-02-27T01:05:30.892Z,84.14
2023-02-27T01:07:57.405Z,84.19
2023-02-27T01:10:23.959Z,84.11
2023-02-27T01:12:50.444Z,84.26
2023-02-27T01:15:16.999Z,83.97
2023-02-27T01:17:44.076Z,84.13
2023-02-27T01:20:12.504Z,83.94
2023-02-27T01:22:39.331Z,83.87
2023-02-27T01:25:07.477Z,84.08
2023-02-27T01:27:34.133Z,84.02
2023-02-27T01:30:00.663Z,84.09
2023-02-27T01:32:27.316Z,84.27
2023-02-27T01:34:53.831Z,84.22
2023-02-27T01:37:20.374Z,84.39
2023-02-27T01:39:46.930Z,84.39
2023-02-27T01:42:20.898Z,84.19
2023-02-27T01:45:12.038Z,84.10
2023-02-27T01:47:42.614Z,83.93
2023-02-27T01:50:10.469Z,84.09
2023-02-27T01:52:39.555Z,84.23
2023-02-27T01:55:08.658Z,84.28
2023-02-27T01:57:36.225Z,84.30
2023-02-27T02:00:04.329Z,84.53
2023-02-27T02:02:39.169Z,84.30
2023-02-27T02:05:07.543Z,84.11
2023-02-27T02:07:36.260Z,84.00
2023-02-27T02:10:03.470Z,83.97
2023-02-27T02:12:34.132Z,83.91
2023-02-27T02:15:00.639Z,83.85
2023-02-27T02:17:40.089Z,83.80
2023-02-27T02:20:23.655Z,84.06
2023-02-27T02:23:11.752Z,83.87
2023-02-27T02:26:29.245Z,84.21
2023-02-27T02:29:21.724Z,84.22
2023-02-27T02:32:08.862Z,84.30
2023-02-27T02:34:50.333Z,84.19
2023-02-27T02:37:26.276Z,84.15
2023-02-27T02:40:05.270Z,84.21
2023-02-27T02:42:57.513Z,84.29
2023-02-27T02:45:30.900Z,84.52
2023-02-27T02:48:18.828Z,84.47
2023-02-27T02:51:30.793Z,84.38
2023-02-27T02:54:31.279Z,84.44
2023-02-27T02:57:10.427Z,84.33
2023-02-27T02:59:44.635Z,84.66
2023-02-27T03:02:16.203Z,84.32
2023-02-27T03:04:56.982Z,84.25
2023-02-27T03:07:30.286Z,84.23
2023-02-27T03:10:15.571Z,84.39
2023-02-27T03:12:46.742Z,84.33
2023-02-27T03:15:19.333Z,84.15
2023-02-27T03:17:48.987Z,84.54
2023-02-27T03:20:22.212Z,84.84
2023-02-27T03:22:55.265Z,84.97
2023-02-27T03:25:23.288Z,85.48
2023-02-27T03:27:55.855Z,85.48
2023-02-27T03:30:41.119Z,85.66
2023-02-27T03:33:23.019Z,85.67
2023-02-27T03:36:31.868Z,86.00
2023-02-27T03:39:07.374Z,86.04
2023-02-27T03:41:47.009Z,86.05
2023-02-27T03:44:19.465Z,86.16
2023-02-27T03:46:46.050Z,86.12
2023-02-27T03:49:12.634Z,86.22
2023-02-27T03:51:39.297Z,86.30
2023-02-27T03:54:17.083Z,86.19
2023-02-27T03:57:04.914Z,86.38
2023-02-27T03:59:32.868Z,86.59
2023-02-27T04:02:00.862Z,86.66
2023-02-27T04:04:31.918Z,86.74
2023-02-27T04:07:23.202Z,87.19
2023-02-27T04:10:20.336Z,87.43
2023-02-27T04:12:52.830Z,86.95
2023-02-27T04:15:34.537Z,86.76
2023-02-27T04:18:29.525Z,86.66
2023-02-27T04:21:11.238Z,87.09
2023-02-27T04:23:46.281Z,87.24
2023-02-27T04:26:30.595Z,87.17
2023-02-27T04:29:09.493Z,87.03
2023-02-27T04:31:50.530Z,86.96
2023-02-27T04:34:41.375Z,87.12
2023-02-27T04:37:10.786Z,86.94
2023-02-27T04:39:43.498Z,86.99
2023-02-27T04:42:21.551Z,86.92
2023-02-27T04:44:50.277Z,86.76
2023-02-27T04:47:19.107Z,86.95
2023-02-27T04:49:57.152Z,86.76
2023-02-27T04:53:03.553Z,86.77
2023-02-27T04:56:08.643Z,86.66
2023-02-27T04:58:40.108Z,86.89
2023-02-27T05:01:18.218Z,86.77
2023-02-27T05:03:49.932Z,86.46
2023-02-27T05:06:20.352Z,86.94
2023-02-27T05:08:54.814Z,87.04
2023-02-27T05:11:41.389Z,87.10
2023-02-27T05:14:19.155Z,87.18
2023-02-27T05:16:52.478Z,87.31
2023-02-27T05:19:20.787Z,87.45
2023-02-27T05:21:56.487Z,87.53
2023-02-27T05:24:47.752Z,87.40
2023-02-27T05:27:25.383Z,87.23
2023-02-27T05:29:55.894Z,87.12
2023-02-27T05:32:40.911Z,87.20
2023-02-27T05:35:29.922Z,87.36
2023-02-27T05:38:16.265Z,87.34
2023-02-27T05:40:52.148Z,87.25
2023-02-27T05:43:27.708Z,87.20
2023-02-27T05:46:01.490Z,87.27
2023-02-27T05:48:32.351Z,87.20
2023-02-27T05:50:59.379Z,87.19
2023-02-27T05:53:30.497Z,87.04
2023-02-27T05:56:02.272Z,87.05
2023-02-27T05:58:43.348Z,86.85
2023-02-27T06:01:11.950Z,87.08
2023-02-27T06:03:40.343Z,87.09
2023-02-27T06:06:11.635Z,87.12
2023-02-27T06:08:38.287Z,87.31
2023-02-27T06:11:05.095Z,87.39
2023-02-27T06:13:31.564Z,87.50
2023-02-27T06:15:58.172Z,87.75
2023-02-27T06:18:24.745Z,87.61
2023-02-27T06:20:51.369Z,87.53
2023-02-27T06:23:18.156Z,87.56
2023-02-27T06:25:44.801Z,87.36
2023-02-27T06:28:11.964Z,87.07
2023-02-27T06:30:38.498Z,86.96
2023-02-27T06:33:05.477Z,86.95
2023-02-27T06:35:32.304Z,87.17
2023-02-27T06:37:59.363Z,87.45
2023-02-27T06:40:25.901Z,87.31
2023-02-27T06:42:52.378Z,87.23
2023-02-27T06:45:19.144Z,87.53
2023-02-27T06:47:45.674Z,87.67
2023-02-27T06:50:14.025Z,87.61
2023-02-27T06:52:41.336Z,87.50
2023-02-27T06:55:09.061Z,87.75
2023-02-27T06:57:36.196Z,87.61
2023-02-27T07:00:05.374Z,87.73
2023-02-27T07:02:31.864Z,87.75
2023-02-27T07:04:58.369Z,87.78
2023-02-27T07:07:32.338Z,87.64
2023-02-27T07:10:05.256Z,87.67
2023-02-27T07:12:31.730Z,87.66
2023-02-27T07:14:58.231Z,87.92
2023-02-27T07:17:24.678Z,88.15
2023-02-27T07:19:51.176Z,88.24
2023-02-27T07:22:17.628Z,88.26
2023-02-27T07:24:44.088Z,88.46
2023-02-27T07:27:10.550Z,88.53
2023-02-27T07:29:37.151Z,88.56
2023-02-27T07:32:03.869Z,88.50
2023-02-27T07:34:30.425Z,88.38
2023-02-27T07:36:56.896Z,88.38
2023-02-27T07:39:23.398Z,88.14
2023-02-27T07:41:49.858Z,88.18
2023-02-27T07:44:16.343Z,88.18
2023-02-27T07:46:44.737Z,88.10
2023-02-27T07:49:11.417Z,87.97
2023-02-27T07:51:37.915Z,87.85
2023-02-27T07:54:04.476Z,87.59
2023-02-27T07:56:31.082Z,87.32
2023-02-27T07:58:57.614Z,87.11
2023-02-27T08:01:24.079Z,87.26
2023-02-27T08:03:50.557Z,87.55
2023-02-27T08:06:17.085Z,87.62
2023-02-27T08:08:43.728Z,87.44
2023-02-27T08:11:10.871Z,87.47
2023-02-27T08:16:23.924Z,86.41
2023-02-27T08:18:50.618Z,85.99
2023-02-27T08:21:17.134Z,85.78
2023-02-27T08:23:43.580Z,85.76
2023-02-27T08:26:10.020Z,85.24
2023-02-27T08:28:36.487Z,85.18
2023-02-27T08:31:03.049Z,84.99
2023-02-27T08:33:29.550Z,84.06
2023-02-27T08:35:57.072Z,84.19
2023-02-27T08:38:26.072Z,83.79
2023-02-27T08:40:55.708Z,83.18
2023-02-27T08:43:23.486Z,83.43
2023-02-27T08:45:50.827Z,83.68
2023-02-27T08:48:18.534Z,83.09
2023-02-27T08:50:46.468Z,81.34
2023-02-27T08:53:13.189Z,81.24
2023-02-27T08:55:39.640Z,81.12
2023-02-27T08:58:06.152Z,80.88
2023-02-27T09:00:32.943Z,80.90
2023-02-27T09:03:01.280Z,81.03
2023-02-27T09:05:28.889Z,81.53
2023-02-27T09:07:55.378Z,81.64
2023-02-27T09:10:21.906Z,81.23
2023-02-27T09:12:49.335Z,81.04
2023-02-27T09:15:15.879Z,81.47
2023-02-27T09:17:42.409Z,80.24
2023-02-27T09:20:10.792Z,81.21
2023-02-27T09:22:37.982Z,79.72
2023-02-27T09:25:05.538Z,79.78
2023-02-27T09:27:31.960Z,79.06
2023-02-27T09:29:59.354Z,78.97
2023-02-27T09:32:26.941Z,79.49
2023-02-27T09:34:54.077Z,79.75
2023-02-27T09:37:20.474Z,80.15
2023-02-27T09:39:47.596Z,79.61
2023-02-27T09:42:24.128Z,79.97
2023-02-27T09:44:53.676Z,79.77
2023-02-27T09:47:26.398Z,79.76
2023-02-27T09:50:00.625Z,80.11
2023-02-27T09:52:29.600Z,80.26
2023-02-27T09:54:56.528Z,80.38
2023-02-27T09:58:01.538Z,79.74
2023-02-27T10:00:49.181Z,79.43
2023-02-27T10:03:32.900Z,79.90
2023-02-27T10:06:14.302Z,78.75
2023-02-27T10:09:19.264Z,78.82
2023-02-27T10:12:07.475Z,78.89
2023-02-27T10:14:58.893Z,79.74
2023-02-27T10:17:33.333Z,79.27
2023-02-27T10:20:04.650Z,79.48
2023-02-27T10:22:36.503Z,79.25
2023-02-27T10:25:18.066Z,79.70
2023-02-27T10:27:50.188Z,80.02
2023-02-27T10:30:29.738Z,80.06
2023-02-27T10:33:15.509Z,80.30
2023-02-27T10:35:44.716Z,79.40
2023-02-27T10:38:12.902Z,80.55
2023-02-27T10:40:41.462Z,79.53
2023-02-27T10:43:08.532Z,77.04
2023-02-27T10:45:35.948Z,76.10
2023-02-27T10:48:05.128Z,75.91
2023-02-27T10:50:37.116Z,76.60
2023-02-27T10:53:07.876Z,74.69
2023-02-27T10:55:38.393Z,75.19
2023-02-27T10:58:05.867Z,75.60
2023-02-27T11:00:38.017Z,75.16
2023-02-27T11:03:05.308Z,74.88
2023-02-27T11:05:32.917Z,74.27
2023-02-27T11:08:33.207Z,74.91
2023-02-27T11:11:06.163Z,74.58
2023-02-27T11:13:35.381Z,73.70
2023-02-27T11:16:16.934Z,73.78
2023-02-27T11:18:45.654Z,73.91
2023-02-27T11:21:27.865Z,72.45
2023-02-27T11:23:59.356Z,72.03
2023-02-27T11:26:30.416Z,73.15
2023-02-27T11:29:23.647Z,74.25
2023-02-27T11:32:03.538Z,74.23
2023-02-27T11:34:36.288Z,74.61
2023-02-27T11:37:07.075Z,75.68
2023-02-27T11:39:37.740Z,76.51
2023-02-27T11:42:17.625Z,76.24
2023-02-27T11:44:55.297Z,76.16
2023-02-27T11:47:26.919Z,75.49
2023-02-27T11:50:14.699Z,73.80
2023-02-27T11:52:50.857Z,74.10
2023-02-27T11:55:21.774Z,72.95
2023-02-27T11:57:54.531Z,73.33
2023-02-27T12:00:29.717Z,72.25
2023-02-27T12:03:04.146Z,72.23
2023-02-27T12:05:39.044Z,71.68
2023-02-27T12:08:42.720Z,72.60
2023-02-27T12:11:33.016Z,73.16
2023-02-27T12:14:09.039Z,73.05
2023-02-27T12:16:42.588Z,72.86
2023-02-27T12:19:18.422Z,71.27
2023-02-27T12:21:52.139Z,71.71
2023-02-27T12:24:24.164Z,71.67
2023-02-27T12:27:07.090Z,71.80
2023-02-27T12:29:39.805Z,71.59
2023-02-27T12:32:25.946Z,71.22
2023-02-27T12:35:02.084Z,71.93
2023-02-27T12:37:29.909Z,72.22
2023-02-27T12:39:59.782Z,72.62
2023-02-27T12:42:35.198Z,72.44
2023-02-27T12:45:11.287Z,72.62
2023-02-27T12:48:08.710Z,72.92
2023-02-27T12:51:01.404Z,72.21
2023-02-27T12:54:08.735Z,72.21
2023-02-27T12:56:56.959Z,71.50
2023-02-27T12:59:32.326Z,69.63
2023-02-27T13:02:13.692Z,68.16
2023-02-27T13:05:08.611Z,66.55
2023-02-27T13:07:43.267Z,65.66
2023-02-27T13:10:17.618Z,67.21
2023-02-27T13:12:57.311Z,67.18
2023-02-27T13:15:45.762Z,66.07
2023-02-27T13:18:37.212Z,67.60
2023-02-27T13:21:32.222Z,66.14
2023-02-27T13:24:05.709Z,65.02
2023-02-27T13:26:38.516Z,65.17
2023-02-27T13:29:06.639Z,67.52
2023-02-27T13:31:42.182Z,67.18
2023-02-27T13:34:18.662Z,66.88
2023-02-27T13:36:51.178Z,66.91
2023-02-27T13:39:45.907Z,66.65
2023-02-27T13:42:27.469Z,65.55
2023-02-27T13:44:56.548Z,66.37
2023-02-27T13:47:29.015Z,65.98
2023-02-27T13:49:56.898Z,64.86
2023-02-27T13:52:50.006Z,63.93
2023-02-27T13:55:28.471Z,62.84
2023-02-27T13:57:59.474Z,59.64
2023-02-27T14:00:29.291Z,60.63
2023-02-27T14:03:07.682Z,60.88
2023-02-27T14:05:45.423Z,61.88
2023-02-27T14:08:11.903Z,61.89
2023-02-27T14:10:41.773Z,62.08
2023-02-27T14:13:59.728Z,61.25
2023-02-27T14:16:38.613Z,62.14
2023-02-27T14:19:11.222Z,60.85
2023-02-27T14:21:57.495Z,61.58
2023-02-27T14:25:02.576Z,62.25
2023-02-27T14:27:44.513Z,63.12
2023-02-27T14:30:33.063Z,62.81
2023-02-27T14:33:37.740Z,62.62
2023-02-27T14:36:16.254Z,61.83
2023-02-27T14:38:43.354Z,61.58
2023-02-27T14:41:32.586Z,61.61
2023-02-27T14:43:59.929Z,62.45
2023-02-27T14:46:34.812Z,63.61
2023-02-27T14:49:08.401Z,63.27
2023-02-27T14:51:37.561Z,63.41
2023-02-27T14:54:27.691Z,63.88
2023-02-27T14:57:01.531Z,64.18
2023-02-27T14:59:31.437Z,64.30
2023-02-27T15:02:02.166Z,64.78
2023-02-27T15:04:31.213Z,65.76
2023-02-27T15:06:59.573Z,66.89
2023-02-27T15:09:43.507Z,67.52
2023-02-27T15:12:17.494Z,67.46
2023-02-27T15:14:49.732Z,67.84
2023-02-27T15:17:19.784Z,68.36
2023-02-27T15:19:56.718Z,69.30
2023-02-27T15:22:38.632Z,69.95
2023-02-27T15:25:07.855Z,70.50
2023-02-27T15:27:37.256Z,71.33
2023-02-27T15:30:04.760Z,71.92
2023-02-27T15:32:38.035Z,72.33
2023-02-27T15:35:13.656Z,73.06
2023-02-27T15:37:41.888Z,73.70
2023-02-27T15:40:13.777Z,73.92
2023-02-27T15:42:40.297Z,74.08
2023-02-27T15:45:07.530Z,74.13
2023-02-27T15:47:35.402Z,74.28
2023-02-27T15:50:21.592Z,74.67
2023-02-27T15:52:54.789Z,74.94
2023-02-27T15:55:31.543Z,74.94
2023-02-27T15:58:03.737Z,75.24
2023-02-27T16:00:33.531Z,75.22
2023-02-27T16:03:00.573Z,75.38
2023-02-27T16:05:33.593Z,75.40
2023-02-27T16:08:02.645Z,75.32
2023-02-27T16:10:41.425Z,75.50
2023-02-27T16:13:25.732Z,75.60
2023-02-27T16:16:04.881Z,75.58
2023-02-27T16:18:43.843Z,75.85
2023-02-27T16:21:25.827Z,76.27
2023-02-27T16:23:53.978Z,76.45
2023-02-27T16:26:36.822Z,76.76
2023-02-27T16:29:18.278Z,76.98
2023-02-27T16:31:51.914Z,77.04
2023-02-27T16:34:44.699Z,77.09
2023-02-27T16:37:24.534Z,77.33
2023-02-27T16:39:54.728Z,77.65
2023-02-27T16:42:21.898Z,78.01
2023-02-27T16:44:48.447Z,78.05
2023-02-27T16:47:14.989Z,78.20
2023-02-27T16:49:41.551Z,78.30
2023-02-27T16:52:12.133Z,78.26
2023-02-27T16:54:38.732Z,78.37
2023-02-27T16:57:05.248Z,78.50
2023-02-27T16:59:41.774Z,78.59
2023-02-27T17:02:13.357Z,78.55
2023-02-27T17:04:43.947Z,78.61
2023-02-27T17:07:15.949Z,78.78
2023-02-27T17:09:47.323Z,78.92
2023-02-27T17:12:14.416Z,79.10
2023-02-27T17:14:40.824Z,79.11
2023-02-27T17:17:07.354Z,79.31
2023-02-27T17:19:34.212Z,79.54
2023-02-27T17:22:00.681Z,79.55
2023-02-27T17:24:27.389Z,79.81
2023-02-27T17:26:53.905Z,79.79
2023-02-27T17:29:20.712Z,79.96
2023-02-27T17:31:47.691Z,79.99
2023-02-27T17:34:16.262Z,80.08
2023-02-27T17:36:43.252Z,79.93
2023-02-27T17:39:11.702Z,79.94
2023-02-27T17:41:38.133Z,79.99
2023-02-27T17:44:04.695Z,79.99
2023-02-27T17:46:31.803Z,80.03
2023-02-27T17:49:00.774Z,80.02
2023-02-27T17:51:29.283Z,80.02
2023-02-27T17:53:56.226Z,79.97
2023-02-27T17:56:23.289Z,80.10
2023-02-27T17:58:50.302Z,80.40
2023-02-27T18:01:20.510Z,80.43
2023-02-27T18:03:47.689Z,80.46
2023-02-27T18:06:14.933Z,80.37
2023-02-27T18:08:41.552Z,80.52
2023-02-27T18:11:19.075Z,80.57
2023-02-27T18:13:47.056Z,80.70
2023-02-27T18:16:13.932Z,80.88
2023-02-27T18:18:42.598Z,80.92
2023-02-27T18:21:15.244Z,80.65
2023-02-27T18:23:43.394Z,80.52
2023-02-27T18:26:27.109Z,80.24
2023-02-27T18:28:56.700Z,79.83
2023-02-27T18:31:29.560Z,79.90
2023-02-27T18:33:56.093Z,79.94
2023-02-27T18:36:22.986Z,79.95
2023-02-27T18:38:49.535Z,80.05
2023-02-27T18:41:16.101Z,80.30
2023-02-27T18:43:43.963Z,80.31
2023-02-27T18:46:12.847Z,80.39
2023-02-27T18:48:44.467Z,80.43
2023-02-27T18:51:15.059Z,80.44
2023-02-27T18:53:44.703Z,80.51
2023-02-27T18:56:12.303Z,80.67
2023-02-27T18:58:42.432Z,80.81
2023-02-27T19:01:24.907Z,80.67
2023-02-27T19:03:53.248Z,80.91
2023-02-27T19:06:19.854Z,80.95
2023-02-27T19:08:46.469Z,81.18
2023-02-27T19:11:23.803Z,81.37
2023-02-27T19:13:51.032Z,81.42
2023-02-27T19:16:17.774Z,81.46
2023-02-27T19:18:44.201Z,81.42
2023-02-27T19:21:10.670Z,81.54
2023-02-27T19:23:37.169Z,81.56
2023-02-27T19:26:03.669Z,81.62
2023-02-27T19:28:30.265Z,81.62
2023-02-27T19:30:58.333Z,81.48
2023-02-27T19:33:25.014Z,81.66
2023-02-27T19:35:51.710Z,81.75
2023-02-27T19:38:18.172Z,81.89
2023-02-27T19:40:44.613Z,82.11
2023-02-27T19:43:15.179Z,82.15
2023-02-27T19:45:42.052Z,81.98
2023-02-27T19:48:11.091Z,82.14
2023-02-27T19:50:40.030Z,82.25
2023-02-27T19:53:06.650Z,82.19
2023-02-27T19:55:33.124Z,82.39
2023-02-27T19:57:59.583Z,82.38
2023-02-27T20:00:26.055Z,82.52
2023-02-27T20:02:52.485Z,82.55
2023-02-27T20:05:19.241Z,82.63
2023-02-27T20:07:47.403Z,82.82
2023-02-27T20:10:15.660Z,82.82
2023-02-27T20:12:42.489Z,82.96
2023-02-27T20:15:11.712Z,83.16
2023-02-27T20:17:39.242Z,83.14
2023-02-27T20:20:06.637Z,83.08
2023-02-27T20:22:33.189Z,83.14
2023-02-27T20:25:00.201Z,83.05
2023-02-27T20:27:26.829Z,83.21
2023-02-27T20:29:54.837Z,82.98
2023-02-27T20:32:23.115Z,83.10
2023-02-27T20:34:50.472Z,82.92
2023-02-27T20:37:17.215Z,83.01
2023-02-27T20:39:45.291Z,83.11
2023-02-27T20:42:14.086Z,83.21
2023-02-27T20:44:41.596Z,83.31
2023-02-27T20:47:09.072Z,83.51
2023-02-27T20:49:36.448Z,83.42
2023-02-27T20:52:03.432Z,83.46
2023-02-27T20:54:29.780Z,83.44
2023-02-27T20:56:56.558Z,83.38
2023-02-27T20:59:28.674Z,83.32
2023-02-27T21:02:17.343Z,83.55
2023-02-27T21:04:59.403Z,83.74
2023-02-27T21:07:26.015Z,83.72
2023-02-27T21:09:53.108Z,83.75
2023-02-27T21:12:19.831Z,83.89
2023-02-27T21:14:51.889Z,83.83
2023-02-27T21:17:30.649Z,83.77
2023-02-27T21:19:59.675Z,83.70
2023-02-27T21:22:26.164Z,83.73
2023-02-27T21:24:56.943Z,83.95
2023-02-27T21:27:23.640Z,83.97
2023-02-27T21:29:52.981Z,83.89
2023-02-27T21:32:19.507Z,84.03
2023-02-27T21:34:45.960Z,84.00
2023-02-27T21:37:12.721Z,84.08
2023-02-27T21:39:39.556Z,84.02
2023-02-27T21:42:07.387Z,84.11
2023-02-27T21:44:34.061Z,84.20
2023-02-27T21:47:09.734Z,84.13
2023-02-27T21:49:36.900Z,84.14
2023-02-27T21:52:03.330Z,84.20
2023-02-27T21:54:29.811Z,84.22
2023-02-27T21:56:58.572Z,84.47
2023-02-27T21:59:25.845Z,84.35
2023-02-27T22:01:52.430Z,84.36
2023-02-27T22:04:19.981Z,84.43
2023-02-27T22:06:47.917Z,84.55
2023-02-27T22:09:14.743Z,84.61
2023-02-27T22:11:41.322Z,84.56
2023-02-27T22:14:08.915Z,84.52
2023-02-27T22:16:35.509Z,84.61
2023-02-27T22:19:11.284Z,84.61
2023-02-27T22:21:38.156Z,84.80
2023-02-27T22:24:05.141Z,84.66
2023-02-27T22:26:31.774Z,84.67
2023-02-27T22:28:59.082Z,84.61
2023-02-27T22:31:35.008Z,84.38
2023-02-27T22:34:12.226Z,84.26
2023-02-27T22:36:39.350Z,84.50
2023-02-27T22:39:05.993Z,84.46
2023-02-27T22:41:34.510Z,84.32
2023-02-27T22:44:01.874Z,84.12
2023-02-27T22:46:31.562Z,84.08
2023-02-27T22:49:01.840Z,84.04
2023-02-27T22:51:29.498Z,84.17
2023-02-27T22:53:58.238Z,84.14
2023-02-27T22:56:26.232Z,84.20
2023-02-27T22:58:53.216Z,84.21
2023-02-27T23:01:21.123Z,84.27
2023-02-27T23:03:50.022Z,84.24
2023-02-27T23:06:19.966Z,84.22
2023-02-27T23:08:46.887Z,84.18
2023-02-27T23:11:17.714Z,84.30
2023-02-27T23:13:44.145Z,84.33
2023-02-27T23:16:13.682Z,84.45
2023-02-27T23:18:42.019Z,84.62
2023-02-27T23:21:09.625Z,84.58
2023-02-27T23:23:36.279Z,84.74
2023-02-27T23:26:03.580Z,84.71
2023-02-27T23:28:30.473Z,84.77
2023-02-27T23:30:57.074Z,84.96
2023-02-27T23:33:23.513Z,85.07
2023-02-27T23:35:50.643Z,85.23
2023-02-27T23:38:17.530Z,85.05
2023-02-27T23:40:43.954Z,85.15
2023-02-27T23:43:10.768Z,85.26
2023-02-27T23:45:37.263Z,85.21
2023-02-27T23:48:04.455Z,85.25
2023-02-27T23:50:35.649Z,85.24
2023-02-27T23:53:02.216Z,85.31
2023-02-27T23:55:30.447Z,85.43
2023-02-27T23:57:58.566Z,85.46
